Airfield :
LOGIN :

Register | Disclaimer

   EN    FR    IT 

 










Legend :    VFR   Marginal VFR   IFR   Intensive IFR   Very Intensive IFR
Visi :
Ceiling :
>= 8 km
>= 3000ft
5 to 8 km
1000 to 3000 ft
1500m to 5 km
500 to 1000 ft
800 to 1500m
200 to 500 ft
< 800m
< 200 ft
Symbols :   Thunderstorms  Fog  Heavy snow  Heavy precipitations  Wind > 20 kt
SIGMETs :     Misc.  Thunderstorms  Icing  Turbulence  Mountain Waves  Volcanic Ashes







- Airport Elevation : 183 ft
- IATA code : HAJ


EDDV - Hanover/Langenhagen Int.

CURRENT METAR :
  • 250920Z 29011KT 250V310 9999 -DZRA BKN013 BKN023 15/13 Q1022 BECMG BKN015

EXPIRED METARs :
  • 250850Z 29008KT 240V320 9999 BKN008 BKN020 16/13 Q1022 BECMG BKN012
  • 250820Z 29007KT 250V310 9000 -DZ BKN007 BKN013 15/14 Q1022 BECMG BKN012
  • 250750Z 27007KT 240V300 8000 -DZ FEW007 SCT012 BKN025 15/13 Q1022 TEMPO 4000 BKN012
  • 250720Z 28006KT 9999 -DZ SCT012 BKN019 BKN028 15/12 Q1022 TEMPO 4000 BKN012
  • 250650Z 27006KT 220V300 9999 SCT009 SCT015 BKN028 15/13 Q1021 NOSIG

TAF TAF EDDV
Valid from the 25 at 06:00 until the 26 at 06:00 UTC


250500Z 2506/2606 28005KT 9999 BKN012
TEMPO 2506/2509 BKN008
BECMG 2507/2509 30010KT
BECMG 2510/2512 BKN025
BECMG 2518/2520 31004KT
TEMPO 2601/2606 BKN010
No reported NOTAMs for that airfield.



MET'MAP, your aeronautical weather chart ! - Copyright ORBIFLY December 2007 - Disclaimer

ORBIFLY MET'MAP TEAM :

Programming & Development : Alexandra Zaïnal
Concept & Development : Baudouin d'Aumeries
Co-Development & Prog : Marc-Olivier Méhu
Technical & hardware support : Manuel Goepfert

Contact : metmap@orbifly.com




SOURCES & CREDITS :

   NOAA